sensor_id;sensor_type;location;lat;lon;timestamp;temperature;humidity
70826;SHT31;58446;41.490;22.098;2024-02-15T00:01:55;8.49;56.87
70826;SHT31;58446;41.490;22.098;2024-02-15T00:04:20;8.45;56.71
70826;SHT31;58446;41.490;22.098;2024-02-15T00:06:46;8.28;57.28
70826;SHT31;58446;41.490;22.098;2024-02-15T00:09:11;8.22;57.64
70826;SHT31;58446;41.490;22.098;2024-02-15T00:11:37;8.28;57.56
70826;SHT31;58446;41.490;22.098;2024-02-15T00:14:04;7.93;57.84
70826;SHT31;58446;41.490;22.098;2024-02-15T00:16:30;8.24;57.61
70826;SHT31;58446;41.490;22.098;2024-02-15T00:18:56;8.22;57.30
70826;SHT31;58446;41.490;22.098;2024-02-15T00:21:22;8.04;57.72
70826;SHT31;58446;41.490;22.098;2024-02-15T00:23:48;7.94;58.09
70826;SHT31;58446;41.490;22.098;2024-02-15T00:26:14;8.14;58.09
70826;SHT31;58446;41.490;22.098;2024-02-15T00:28:43;8.05;57.94
70826;SHT31;58446;41.490;22.098;2024-02-15T00:31:09;7.97;58.45
70826;SHT31;58446;41.490;22.098;2024-02-15T00:33:34;7.81;58.38
70826;SHT31;58446;41.490;22.098;2024-02-15T00:36:04;7.80;58.78
70826;SHT31;58446;41.490;22.098;2024-02-15T00:38:32;8.01;58.41
70826;SHT31;58446;41.490;22.098;2024-02-15T00:40:58;7.83;58.34
70826;SHT31;58446;41.490;22.098;2024-02-15T00:43:27;7.97;58.34
70826;SHT31;58446;41.490;22.098;2024-02-15T00:45:53;7.99;58.04
70826;SHT31;58446;41.490;22.098;2024-02-15T00:48:19;8.01;58.06
70826;SHT31;58446;41.490;22.098;2024-02-15T00:50:44;8.06;57.76
70826;SHT31;58446;41.490;22.098;2024-02-15T00:53:10;8.05;57.56
70826;SHT31;58446;41.490;22.098;2024-02-15T00:55:36;7.90;57.38
70826;SHT31;58446;41.490;22.098;2024-02-15T00:58:01;7.85;57.54
70826;SHT31;58446;41.490;22.098;2024-02-15T01:00:28;7.81;57.93
70826;SHT31;58446;41.490;22.098;2024-02-15T01:02:55;7.81;58.16
70826;SHT31;58446;41.490;22.098;2024-02-15T01:05:21;7.71;57.89
70826;SHT31;58446;41.490;22.098;2024-02-15T01:07:47;7.66;57.75
70826;SHT31;58446;41.490;22.098;2024-02-15T01:10:14;7.66;57.90
70826;SHT31;58446;41.490;22.098;2024-02-15T01:12:40;7.59;58.29
70826;SHT31;58446;41.490;22.098;2024-02-15T01:15:06;7.75;58.05
70826;SHT31;58446;41.490;22.098;2024-02-15T01:17:32;7.93;58.01
70826;SHT31;58446;41.490;22.098;2024-02-15T01:19:57;7.99;57.69
70826;SHT31;58446;41.490;22.098;2024-02-15T01:22:23;8.06;57.24
70826;SHT31;58446;41.490;22.098;2024-02-15T01:24:50;8.11;57.29
70826;SHT31;58446;41.490;22.098;2024-02-15T01:27:16;8.18;57.02
70826;SHT31;58446;41.490;22.098;2024-02-15T01:29:42;8.24;56.97
70826;SHT31;58446;41.490;22.098;2024-02-15T01:32:08;8.24;56.43
70826;SHT31;58446;41.490;22.098;2024-02-15T01:34:33;8.24;56.64
70826;SHT31;58446;41.490;22.098;2024-02-15T01:36:59;8.18;57.03
70826;SHT31;58446;41.490;22.098;2024-02-15T01:39:25;8.28;56.98
70826;SHT31;58446;41.490;22.098;2024-02-15T01:41:51;8.36;56.15
70826;SHT31;58446;41.490;22.098;2024-02-15T01:44:21;8.32;56.36
70826;SHT31;58446;41.490;22.098;2024-02-15T01:46:47;8.45;56.36
70826;SHT31;58446;41.490;22.098;2024-02-15T01:49:14;8.42;55.72
70826;SHT31;58446;41.490;22.098;2024-02-15T01:51:41;8.26;55.96
70826;SHT31;58446;41.490;22.098;2024-02-15T01:54:12;8.22;55.79
70826;SHT31;58446;41.490;22.098;2024-02-15T01:56:38;8.31;55.74
70826;SHT31;58446;41.490;22.098;2024-02-15T01:59:05;8.21;55.66
70826;SHT31;58446;41.490;22.098;2024-02-15T02:01:31;8.11;56.30
70826;SHT31;58446;41.490;22.098;2024-02-15T02:04:00;8.21;55.72
70826;SHT31;58446;41.490;22.098;2024-02-15T02:06:26;8.24;55.66
70826;SHT31;58446;41.490;22.098;2024-02-15T02:08:52;8.14;56.05
70826;SHT31;58446;41.490;22.098;2024-02-15T02:11:21;8.21;55.86
70826;SHT31;58446;41.490;22.098;2024-02-15T02:13:46;8.18;56.20
70826;SHT31;58446;41.490;22.098;2024-02-15T02:16:27;8.28;55.85
70826;SHT31;58446;41.490;22.098;2024-02-15T02:18:58;8.06;56.06
70826;SHT31;58446;41.490;22.098;2024-02-15T02:21:28;8.18;55.94
70826;SHT31;58446;41.490;22.098;2024-02-15T02:23:57;8.06;55.60
70826;SHT31;58446;41.490;22.098;2024-02-15T02:26:24;8.09;55.80
70826;SHT31;58446;41.490;22.098;2024-02-15T02:28:50;8.11;56.01
70826;SHT31;58446;41.490;22.098;2024-02-15T02:31:19;8.20;56.21
70826;SHT31;58446;41.490;22.098;2024-02-15T02:33:51;8.12;55.20
70826;SHT31;58446;41.490;22.098;2024-02-15T02:36:20;8.28;55.79
70826;SHT31;58446;41.490;22.098;2024-02-15T02:38:47;8.25;55.92
70826;SHT31;58446;41.490;22.098;2024-02-15T02:41:16;8.31;56.05
70826;SHT31;58446;41.490;22.098;2024-02-15T02:43:42;8.36;55.96
70826;SHT31;58446;41.490;22.098;2024-02-15T02:46:11;8.24;55.36
70826;SHT31;58446;41.490;22.098;2024-02-15T02:48:38;8.12;55.69
70826;SHT31;58446;41.490;22.098;2024-02-15T02:51:04;8.12;56.52
70826;SHT31;58446;41.490;22.098;2024-02-15T02:53:29;8.20;55.72
70826;SHT31;58446;41.490;22.098;2024-02-15T02:55:58;8.28;56.16
70826;SHT31;58446;41.490;22.098;2024-02-15T02:58:24;8.29;56.02
70826;SHT31;58446;41.490;22.098;2024-02-15T03:00:50;8.21;55.93
70826;SHT31;58446;41.490;22.098;2024-02-15T03:03:17;8.18;55.84
70826;SHT31;58446;41.490;22.098;2024-02-15T03:05:48;8.21;55.98
70826;SHT31;58446;41.490;22.098;2024-02-15T03:08:14;8.16;56.06
70826;SHT31;58446;41.490;22.098;2024-02-15T03:10:40;8.22;55.73
70826;SHT31;58446;41.490;22.098;2024-02-15T03:13:06;7.98;55.52
70826;SHT31;58446;41.490;22.098;2024-02-15T03:15:35;7.98;56.47
70826;SHT31;58446;41.490;22.098;2024-02-15T03:18:00;8.01;55.87
70826;SHT31;58446;41.490;22.098;2024-02-15T03:20:32;7.97;56.87
70826;SHT31;58446;41.490;22.098;2024-02-15T03:23:00;8.04;56.10
70826;SHT31;58446;41.490;22.098;2024-02-15T03:25:27;7.95;55.78
70826;SHT31;58446;41.490;22.098;2024-02-15T03:27:58;8.24;55.96
70826;SHT31;58446;41.490;22.098;2024-02-15T03:30:27;8.28;55.28
70826;SHT31;58446;41.490;22.098;2024-02-15T03:32:56;8.24;55.87
70826;SHT31;58446;41.490;22.098;2024-02-15T03:35:24;8.21;55.55
70826;SHT31;58446;41.490;22.098;2024-02-15T03:37:50;8.21;55.36
70826;SHT31;58446;41.490;22.098;2024-02-15T03:40:17;8.14;55.10
70826;SHT31;58446;41.490;22.098;2024-02-15T03:42:43;8.12;55.90
70826;SHT31;58446;41.490;22.098;2024-02-15T03:45:09;8.16;55.48
70826;SHT31;58446;41.490;22.098;2024-02-15T03:47:36;8.18;55.77
70826;SHT31;58446;41.490;22.098;2024-02-15T03:50:03;7.98;54.80
70826;SHT31;58446;41.490;22.098;2024-02-15T03:52:30;7.98;55.55
70826;SHT31;58446;41.490;22.098;2024-02-15T03:54:58;7.90;56.35
70826;SHT31;58446;41.490;22.098;2024-02-15T03:57:25;7.98;56.05
70826;SHT31;58446;41.490;22.098;2024-02-15T03:59:52;7.90;55.52
70826;SHT31;58446;41.490;22.098;2024-02-15T04:02:23;7.93;55.98
70826;SHT31;58446;41.490;22.098;2024-02-15T04:04:52;7.90;56.23
70826;SHT31;58446;41.490;22.098;2024-02-15T04:07:20;7.87;55.53
70826;SHT31;58446;41.490;22.098;2024-02-15T04:09:47;7.80;56.21
70826;SHT31;58446;41.490;22.098;2024-02-15T04:12:13;7.70;55.91
70826;SHT31;58446;41.490;22.098;2024-02-15T04:14:43;7.84;56.37
70826;SHT31;58446;41.490;22.098;2024-02-15T04:17:11;7.78;56.46
70826;SHT31;58446;41.490;22.098;2024-02-15T04:19:39;7.94;56.10
70826;SHT31;58446;41.490;22.098;2024-02-15T04:22:05;8.08;55.71
70826;SHT31;58446;41.490;22.098;2024-02-15T04:24:33;8.09;55.54
70826;SHT31;58446;41.490;22.098;2024-02-15T04:27:00;8.15;55.29
70826;SHT31;58446;41.490;22.098;2024-02-15T04:29:25;8.06;55.56
70826;SHT31;58446;41.490;22.098;2024-02-15T04:31:51;7.99;55.52
70826;SHT31;58446;41.490;22.098;2024-02-15T04:34:20;8.06;55.65
70826;SHT31;58446;41.490;22.098;2024-02-15T04:36:47;7.94;55.53
70826;SHT31;58446;41.490;22.098;2024-02-15T04:39:17;7.98;55.49
70826;SHT31;58446;41.490;22.098;2024-02-15T04:41:55;8.01;55.40
70826;SHT31;58446;41.490;22.098;2024-02-15T04:44:21;8.02;55.18
70826;SHT31;58446;41.490;22.098;2024-02-15T04:46:48;7.99;55.32
70826;SHT31;58446;41.490;22.098;2024-02-15T04:49:15;8.04;55.21
70826;SHT31;58446;41.490;22.098;2024-02-15T04:51:41;7.93;54.94
70826;SHT31;58446;41.490;22.098;2024-02-15T04:54:10;7.77;55.27
70826;SHT31;58446;41.490;22.098;2024-02-15T04:56:39;7.69;56.05
70826;SHT31;58446;41.490;22.098;2024-02-15T04:59:09;7.80;55.88
70826;SHT31;58446;41.490;22.098;2024-02-15T05:01:37;7.67;55.67
70826;SHT31;58446;41.490;22.098;2024-02-15T05:04:03;7.69;55.53
70826;SHT31;58446;41.490;22.098;2024-02-15T05:06:33;7.69;55.89
70826;SHT31;58446;41.490;22.098;2024-02-15T05:08:59;7.56;55.82
70826;SHT31;58446;41.490;22.098;2024-02-15T05:11:33;7.60;56.03
70826;SHT31;58446;41.490;22.098;2024-02-15T05:14:01;7.50;56.30
70826;SHT31;58446;41.490;22.098;2024-02-15T05:16:27;7.59;56.06
70826;SHT31;58446;41.490;22.098;2024-02-15T05:18:53;7.43;56.16
70826;SHT31;58446;41.490;22.098;2024-02-15T05:21:19;7.36;56.61
70826;SHT31;58446;41.490;22.098;2024-02-15T05:23:45;7.37;56.06
70826;SHT31;58446;41.490;22.098;2024-02-15T05:26:11;7.26;56.37
70826;SHT31;58446;41.490;22.098;2024-02-15T05:28:42;7.29;56.51
70826;SHT31;58446;41.490;22.098;2024-02-15T05:33:45;7.32;55.76
70826;SHT31;58446;41.490;22.098;2024-02-15T05:36:20;7.62;55.86
70826;SHT31;58446;41.490;22.098;2024-02-15T05:38:55;7.64;55.86
70826;SHT31;58446;41.490;22.098;2024-02-15T05:41:22;7.75;55.60
70826;SHT31;58446;41.490;22.098;2024-02-15T05:43:50;7.74;55.35
70826;SHT31;58446;41.490;22.098;2024-02-15T05:46:18;7.74;55.43
70826;SHT31;58446;41.490;22.098;2024-02-15T05:48:44;7.74;55.18
70826;SHT31;58446;41.490;22.098;2024-02-15T05:51:09;7.81;55.10
70826;SHT31;58446;41.490;22.098;2024-02-15T05:53:36;7.88;54.77
70826;SHT31;58446;41.490;22.098;2024-02-15T05:56:03;7.93;54.69
70826;SHT31;58446;41.490;22.098;2024-02-15T05:58:32;8.05;54.46
70826;SHT31;58446;41.490;22.098;2024-02-15T06:00:59;8.09;54.45
70826;SHT31;58446;41.490;22.098;2024-02-15T06:03:28;8.15;54.19
70826;SHT31;58446;41.490;22.098;2024-02-15T06:05:54;8.24;53.94
70826;SHT31;58446;41.490;22.098;2024-02-15T06:08:33;8.48;53.14
70826;SHT31;58446;41.490;22.098;2024-02-15T06:11:00;9.27;51.35
70826;SHT31;58446;41.490;22.098;2024-02-15T06:13:31;10.10;48.71
70826;SHT31;58446;41.490;22.098;2024-02-15T06:15:57;10.78;46.43
70826;SHT31;58446;41.490;22.098;2024-02-15T06:18:28;11.52;45.68
70826;SHT31;58446;41.490;22.098;2024-02-15T06:20:59;12.05;43.71
70826;SHT31;58446;41.490;22.098;2024-02-15T06:23:28;12.48;42.42
70826;SHT31;58446;41.490;22.098;2024-02-15T06:25:55;12.70;42.76
70826;SHT31;58446;41.490;22.098;2024-02-15T06:28:26;13.33;41.41
70826;SHT31;58446;41.490;22.098;2024-02-15T06:31:11;13.40;40.85
70826;SHT31;58446;41.490;22.098;2024-02-15T06:33:56;13.82;40.44
70826;SHT31;58446;41.490;22.098;2024-02-15T06:36:47;13.78;40.01
70826;SHT31;58446;41.490;22.098;2024-02-15T06:39:32;13.81;39.34
70826;SHT31;58446;41.490;22.098;2024-02-15T06:42:06;14.26;38.98
70826;SHT31;58446;41.490;22.098;2024-02-15T06:44:32;14.12;38.77
70826;SHT31;58446;41.490;22.098;2024-02-15T06:46:58;14.23;39.39
70826;SHT31;58446;41.490;22.098;2024-02-15T06:49:25;14.95;37.75
70826;SHT31;58446;41.490;22.098;2024-02-15T06:51:52;14.74;38.25
70826;SHT31;58446;41.490;22.098;2024-02-15T06:54:18;14.85;38.48
70826;SHT31;58446;41.490;22.098;2024-02-15T06:56:44;14.80;38.35
70826;SHT31;58446;41.490;22.098;2024-02-15T06:59:13;14.37;39.19
70826;SHT31;58446;41.490;22.098;2024-02-15T07:01:41;14.32;38.95
70826;SHT31;58446;41.490;22.098;2024-02-15T07:04:07;13.74;40.66
70826;SHT31;58446;41.490;22.098;2024-02-15T07:06:36;13.72;40.89
70826;SHT31;58446;41.490;22.098;2024-02-15T07:09:06;13.26;41.58
70826;SHT31;58446;41.490;22.098;2024-02-15T07:11:35;13.18;41.26
70826;SHT31;58446;41.490;22.098;2024-02-15T07:14:01;13.16;41.80
70826;SHT31;58446;41.490;22.098;2024-02-15T07:16:27;12.95;41.65
70826;SHT31;58446;41.490;22.098;2024-02-15T07:18:53;12.80;41.90
70826;SHT31;58446;41.490;22.098;2024-02-15T07:21:20;12.80;42.35
70826;SHT31;58446;41.490;22.098;2024-02-15T07:23:51;12.68;42.73
70826;SHT31;58446;41.490;22.098;2024-02-15T07:26:18;12.68;42.83
70826;SHT31;58446;41.490;22.098;2024-02-15T07:28:45;12.77;42.60
70826;SHT31;58446;41.490;22.098;2024-02-15T07:31:13;12.99;42.52
70826;SHT31;58446;41.490;22.098;2024-02-15T07:33:40;12.80;42.94
70826;SHT31;58446;41.490;22.098;2024-02-15T07:36:08;12.83;42.66
70826;SHT31;58446;41.490;22.098;2024-02-15T07:38:34;12.73;42.58
70826;SHT31;58446;41.490;22.098;2024-02-15T07:41:00;12.52;43.21
70826;SHT31;58446;41.490;22.098;2024-02-15T07:43:26;12.35;43.86
70826;SHT31;58446;41.490;22.098;2024-02-15T07:45:52;12.35;43.95
70826;SHT31;58446;41.490;22.098;2024-02-15T07:48:18;12.48;43.54
70826;SHT31;58446;41.490;22.098;2024-02-15T07:50:44;12.44;43.62
70826;SHT31;58446;41.490;22.098;2024-02-15T07:53:10;12.45;43.52
70826;SHT31;58446;41.490;22.098;2024-02-15T07:55:37;12.58;43.22
70826;SHT31;58446;41.490;22.098;2024-02-15T07:58:03;12.49;43.61
70826;SHT31;58446;41.490;22.098;2024-02-15T08:00:30;12.55;43.55
70826;SHT31;58446;41.490;22.098;2024-02-15T08:02:56;12.48;43.65
70826;SHT31;58446;41.490;22.098;2024-02-15T08:05:24;12.17;44.17
70826;SHT31;58446;41.490;22.098;2024-02-15T08:07:50;12.32;43.57
70826;SHT31;58446;41.490;22.098;2024-02-15T08:10:16;12.38;43.57
70826;SHT31;58446;41.490;22.098;2024-02-15T08:12:43;12.49;43.16
70826;SHT31;58446;41.490;22.098;2024-02-15T08:15:09;12.18;43.96
70826;SHT31;58446;41.490;22.098;2024-02-15T08:17:44;11.99;44.34
70826;SHT31;58446;41.490;22.098;2024-02-15T08:20:14;11.86;44.63
70826;SHT31;58446;41.490;22.098;2024-02-15T08:22:40;11.60;44.83
70826;SHT31;58446;41.490;22.098;2024-02-15T08:25:11;11.57;45.11
70826;SHT31;58446;41.490;22.098;2024-02-15T08:27:38;11.55;45.06
70826;SHT31;58446;41.490;22.098;2024-02-15T08:30:11;11.94;44.44
70826;SHT31;58446;41.490;22.098;2024-02-15T08:32:39;12.07;44.47
70826;SHT31;58446;41.490;22.098;2024-02-15T08:35:06;12.32;43.61
70826;SHT31;58446;41.490;22.098;2024-02-15T08:37:32;12.10;43.95
70826;SHT31;58446;41.490;22.098;2024-02-15T08:40:06;12.28;43.69
70826;SHT31;58446;41.490;22.098;2024-02-15T08:42:42;11.44;44.94
70826;SHT31;58446;41.490;22.098;2024-02-15T08:45:08;10.88;45.91
70826;SHT31;58446;41.490;22.098;2024-02-15T08:47:39;11.33;45.81
70826;SHT31;58446;41.490;22.098;2024-02-15T08:50:06;11.26;45.17
70826;SHT31;58446;41.490;22.098;2024-02-15T08:52:41;11.08;45.59
70826;SHT31;58446;41.490;22.098;2024-02-15T08:55:18;10.99;45.82
70826;SHT31;58446;41.490;22.098;2024-02-15T08:57:46;11.42;45.20
70826;SHT31;58446;41.490;22.098;2024-02-15T09:00:12;11.44;44.82
70826;SHT31;58446;41.490;22.098;2024-02-15T09:02:45;11.18;45.35
70826;SHT31;58446;41.490;22.098;2024-02-15T09:05:11;10.96;45.86
70826;SHT31;58446;41.490;22.098;2024-02-15T09:07:41;11.08;45.85
70826;SHT31;58446;41.490;22.098;2024-02-15T09:10:08;11.67;45.36
70826;SHT31;58446;41.490;22.098;2024-02-15T09:12:36;11.74;44.61
70826;SHT31;58446;41.490;22.098;2024-02-15T09:15:06;12.15;44.31
70826;SHT31;58446;41.490;22.098;2024-02-15T09:17:32;12.49;43.39
70826;SHT31;58446;41.490;22.098;2024-02-15T09:20:08;12.38;43.55
70826;SHT31;58446;41.490;22.098;2024-02-15T09:22:34;12.53;43.32
70826;SHT31;58446;41.490;22.098;2024-02-15T09:25:02;12.63;43.42
70826;SHT31;58446;41.490;22.098;2024-02-15T09:27:28;12.86;42.65
70826;SHT31;58446;41.490;22.098;2024-02-15T09:29:54;12.45;42.80
70826;SHT31;58446;41.490;22.098;2024-02-15T09:32:21;11.78;43.98
70826;SHT31;58446;41.490;22.098;2024-02-15T09:34:48;11.57;44.40
70826;SHT31;58446;41.490;22.098;2024-02-15T09:37:14;11.52;44.79
70826;SHT31;58446;41.490;22.098;2024-02-15T09:39:41;11.73;44.80
70826;SHT31;58446;41.490;22.098;2024-02-15T09:42:06;11.81;44.08
70826;SHT31;58446;41.490;22.098;2024-02-15T09:44:32;11.56;44.22
70826;SHT31;58446;41.490;22.098;2024-02-15T09:47:05;11.95;44.57
70826;SHT31;58446;41.490;22.098;2024-02-15T09:49:36;11.71;44.15
70826;SHT31;58446;41.490;22.098;2024-02-15T09:52:03;11.65;44.08
70826;SHT31;58446;41.490;22.098;2024-02-15T09:54:30;11.56;44.15
70826;SHT31;58446;41.490;22.098;2024-02-15T09:56:56;11.88;43.52
70826;SHT31;58446;41.490;22.098;2024-02-15T09:59:23;12.11;43.04
70826;SHT31;58446;41.490;22.098;2024-02-15T10:01:49;11.91;43.41
70826;SHT31;58446;41.490;22.098;2024-02-15T10:04:15;11.84;43.63
70826;SHT31;58446;41.490;22.098;2024-02-15T10:06:44;11.70;44.26
70826;SHT31;58446;41.490;22.098;2024-02-15T10:09:28;11.35;44.39
70826;SHT31;58446;41.490;22.098;2024-02-15T10:11:59;11.20;44.79
70826;SHT31;58446;41.490;22.098;2024-02-15T10:14:34;11.05;44.85
70826;SHT31;58446;41.490;22.098;2024-02-15T10:17:06;10.96;45.28
70826;SHT31;58446;41.490;22.098;2024-02-15T10:19:37;11.08;45.07
70826;SHT31;58446;41.490;22.098;2024-02-15T10:22:09;11.35;44.95
70826;SHT31;58446;41.490;22.098;2024-02-15T10:24:35;11.70;44.87
70826;SHT31;58446;41.490;22.098;2024-02-15T10:27:03;11.57;44.67
70826;SHT31;58446;41.490;22.098;2024-02-15T10:29:30;11.86;44.20
70826;SHT31;58446;41.490;22.098;2024-02-15T10:31:57;11.94;43.65
70826;SHT31;58446;41.490;22.098;2024-02-15T10:34:24;12.17;44.49
70826;SHT31;58446;41.490;22.098;2024-02-15T10:36:54;12.44;42.94
70826;SHT31;58446;41.490;22.098;2024-02-15T10:39:22;12.01;43.71
70826;SHT31;58446;41.490;22.098;2024-02-15T10:41:53;11.88;44.15
70826;SHT31;58446;41.490;22.098;2024-02-15T10:44:23;11.83;43.85
70826;SHT31;58446;41.490;22.098;2024-02-15T10:46:50;11.91;43.98
70826;SHT31;58446;41.490;22.098;2024-02-15T10:49:21;12.05;43.73
70826;SHT31;58446;41.490;22.098;2024-02-15T10:52:00;12.39;43.23
70826;SHT31;58446;41.490;22.098;2024-02-15T10:54:41;12.72;42.51
70826;SHT31;58446;41.490;22.098;2024-02-15T10:57:10;12.92;42.08
70826;SHT31;58446;41.490;22.098;2024-02-15T10:59:37;13.13;41.50
70826;SHT31;58446;41.490;22.098;2024-02-15T11:04:47;13.04;41.49
70826;SHT31;58446;41.490;22.098;2024-02-15T11:07:16;12.63;41.59
70826;SHT31;58446;41.490;22.098;2024-02-15T11:09:43;12.70;41.10
70826;SHT31;58446;41.490;22.098;2024-02-15T11:12:09;12.21;42.15
70826;SHT31;58446;41.490;22.098;2024-02-15T11:14:36;12.10;42.79
70826;SHT31;58446;41.490;22.098;2024-02-15T11:17:02;12.18;42.52
70826;SHT31;58446;41.490;22.098;2024-02-15T11:22:09;12.36;42.06
70826;SHT31;58446;41.490;22.098;2024-02-15T11:24:37;12.20;41.77
70826;SHT31;58446;41.490;22.098;2024-02-15T11:27:10;11.95;42.37
70826;SHT31;58446;41.490;22.098;2024-02-15T11:29:52;11.88;42.93
70826;SHT31;58446;41.490;22.098;2024-02-15T11:32:39;12.17;42.46
70826;SHT31;58446;41.490;22.098;2024-02-15T11:35:09;12.07;42.44
70826;SHT31;58446;41.490;22.098;2024-02-15T11:42:49;12.01;43.17
70826;SHT31;58446;41.490;22.098;2024-02-15T11:45:16;12.14;42.93
70826;SHT31;58446;41.490;22.098;2024-02-15T11:47:48;12.34;42.89
70826;SHT31;58446;41.490;22.098;2024-02-15T11:50:17;12.28;42.31
70826;SHT31;58446;41.490;22.098;2024-02-15T11:52:48;12.58;42.06
70826;SHT31;58446;41.490;22.098;2024-02-15T11:55:19;12.55;41.89
70826;SHT31;58446;41.490;22.098;2024-02-15T11:57:58;12.75;41.40
70826;SHT31;58446;41.490;22.098;2024-02-15T12:00:39;12.82;41.05
70826;SHT31;58446;41.490;22.098;2024-02-15T12:03:24;13.13;41.04
70826;SHT31;58446;41.490;22.098;2024-02-15T12:06:08;13.34;40.78
70826;SHT31;58446;41.490;22.098;2024-02-15T12:09:09;13.14;40.55
70826;SHT31;58446;41.490;22.098;2024-02-15T12:11:59;12.99;40.61
70826;SHT31;58446;41.490;22.098;2024-02-15T12:14:43;13.23;40.91
70826;SHT31;58446;41.490;22.098;2024-02-15T12:17:27;13.47;40.19
70826;SHT31;58446;41.490;22.098;2024-02-15T12:20:11;13.64;39.80
70826;SHT31;58446;41.490;22.098;2024-02-15T12:22:41;13.72;39.85
70826;SHT31;58446;41.490;22.098;2024-02-15T12:25:14;13.79;39.22
70826;SHT31;58446;41.490;22.098;2024-02-15T12:27:41;13.04;40.30
70826;SHT31;58446;41.490;22.098;2024-02-15T12:30:14;13.02;40.89
70826;SHT31;58446;41.490;22.098;2024-02-15T12:32:40;13.28;40.83
70826;SHT31;58446;41.490;22.098;2024-02-15T12:35:16;13.07;40.71
70826;SHT31;58446;41.490;22.098;2024-02-15T12:40:35;13.13;40.75
70826;SHT31;58446;41.490;22.098;2024-02-15T12:43:04;13.26;42.06
70826;SHT31;58446;41.490;22.098;2024-02-15T12:45:31;13.57;40.55
70826;SHT31;58446;41.490;22.098;2024-02-15T12:47:57;13.69;40.53
70826;SHT31;58446;41.490;22.098;2024-02-15T12:50:27;13.79;40.12
70826;SHT31;58446;41.490;22.098;2024-02-15T12:52:54;13.65;40.23
70826;SHT31;58446;41.490;22.098;2024-02-15T12:55:24;13.31;40.79
70826;SHT31;58446;41.490;22.098;2024-02-15T12:57:54;13.14;41.13
70826;SHT31;58446;41.490;22.098;2024-02-15T13:00:23;13.20;41.05
70826;SHT31;58446;41.490;22.098;2024-02-15T13:02:53;13.24;41.06
70826;SHT31;58446;41.490;22.098;2024-02-15T13:05:19;13.20;40.87
70826;SHT31;58446;41.490;22.098;2024-02-15T13:07:50;12.99;41.36
70826;SHT31;58446;41.490;22.098;2024-02-15T13:10:16;12.99;41.27
70826;SHT31;58446;41.490;22.098;2024-02-15T13:12:46;13.26;41.07
70826;SHT31;58446;41.490;22.098;2024-02-15T13:15:16;13.26;40.89
70826;SHT31;58446;41.490;22.098;2024-02-15T13:17:56;13.14;41.07
70826;SHT31;58446;41.490;22.098;2024-02-15T13:20:25;12.92;41.27
70826;SHT31;58446;41.490;22.098;2024-02-15T13:23:02;12.96;41.76
70826;SHT31;58446;41.490;22.098;2024-02-15T13:25:34;13.23;41.48
70826;SHT31;58446;41.490;22.098;2024-02-15T13:28:01;13.48;40.23
70826;SHT31;58446;41.490;22.098;2024-02-15T13:30:28;13.31;40.70
70826;SHT31;58446;41.490;22.098;2024-02-15T13:32:54;13.24;40.69
70826;SHT31;58446;41.490;22.098;2024-02-15T13:35:20;13.37;40.04
70826;SHT31;58446;41.490;22.098;2024-02-15T13:37:49;13.58;39.77
70826;SHT31;58446;41.490;22.098;2024-02-15T13:40:15;13.68;39.32
70826;SHT31;58446;41.490;22.098;2024-02-15T13:42:45;13.81;39.17
70826;SHT31;58446;41.490;22.098;2024-02-15T13:45:16;13.86;39.56
70826;SHT31;58446;41.490;22.098;2024-02-15T13:47:45;13.79;39.57
70826;SHT31;58446;41.490;22.098;2024-02-15T13:50:12;13.30;39.90
70826;SHT31;58446;41.490;22.098;2024-02-15T13:52:43;12.97;40.10
70826;SHT31;58446;41.490;22.098;2024-02-15T13:55:13;12.80;39.85
70826;SHT31;58446;41.490;22.098;2024-02-15T13:57:40;12.75;39.77
70826;SHT31;58446;41.490;22.098;2024-02-15T14:00:10;12.63;39.84
70826;SHT31;58446;41.490;22.098;2024-02-15T14:02:56;12.73;39.92
70826;SHT31;58446;41.490;22.098;2024-02-15T14:05:24;12.75;39.72
70826;SHT31;58446;41.490;22.098;2024-02-15T14:07:53;12.86;39.75
70826;SHT31;58446;41.490;22.098;2024-02-15T14:10:21;12.97;39.33
70826;SHT31;58446;41.490;22.098;2024-02-15T14:12:47;12.87;39.87
70826;SHT31;58446;41.490;22.098;2024-02-15T14:15:15;13.16;39.47
70826;SHT31;58446;41.490;22.098;2024-02-15T14:17:42;13.03;39.37
70826;SHT31;58446;41.490;22.098;2024-02-15T14:20:10;12.90;39.55
70826;SHT31;58446;41.490;22.098;2024-02-15T14:22:46;12.79;39.51
70826;SHT31;58446;41.490;22.098;2024-02-15T14:25:15;12.69;39.69
70826;SHT31;58446;41.490;22.098;2024-02-15T14:27:41;12.76;39.25
70826;SHT31;58446;41.490;22.098;2024-02-15T14:30:08;12.72;39.26
70826;SHT31;58446;41.490;22.098;2024-02-15T14:32:52;12.70;39.31
70826;SHT31;58446;41.490;22.098;2024-02-15T14:35:35;12.65;39.42
70826;SHT31;58446;41.490;22.098;2024-02-15T14:38:02;12.76;39.56
70826;SHT31;58446;41.490;22.098;2024-02-15T14:40:31;12.76;39.44
70826;SHT31;58446;41.490;22.098;2024-02-15T14:42:58;12.76;39.36
70826;SHT31;58446;41.490;22.098;2024-02-15T14:45:25;12.73;39.47
70826;SHT31;58446;41.490;22.098;2024-02-15T14:47:50;12.75;39.73
70826;SHT31;58446;41.490;22.098;2024-02-15T14:50:16;12.92;39.61
70826;SHT31;58446;41.490;22.098;2024-02-15T14:52:42;12.92;39.51
70826;SHT31;58446;41.490;22.098;2024-02-15T14:55:08;12.85;39.74
70826;SHT31;58446;41.490;22.098;2024-02-15T14:57:34;12.80;39.91
70826;SHT31;58446;41.490;22.098;2024-02-15T15:00:06;12.79;39.80
70826;SHT31;58446;41.490;22.098;2024-02-15T15:02:37;12.80;39.70
70826;SHT31;58446;41.490;22.098;2024-02-15T15:05:03;12.89;39.75
70826;SHT31;58446;41.490;22.098;2024-02-15T15:07:47;13.00;39.72
70826;SHT31;58446;41.490;22.098;2024-02-15T15:10:31;13.06;40.21
70826;SHT31;58446;41.490;22.098;2024-02-15T15:13:15;13.07;40.08
70826;SHT31;58446;41.490;22.098;2024-02-15T15:15:41;13.16;40.47
70826;SHT31;58446;41.490;22.098;2024-02-15T15:18:07;13.18;40.14
70826;SHT31;58446;41.490;22.098;2024-02-15T15:20:36;13.18;40.40
70826;SHT31;58446;41.490;22.098;2024-02-15T15:23:03;13.21;40.54
70826;SHT31;58446;41.490;22.098;2024-02-15T15:25:30;13.21;40.65
70826;SHT31;58446;41.490;22.098;2024-02-15T15:27:56;13.21;41.04
70826;SHT31;58446;41.490;22.098;2024-02-15T15:30:22;13.24;40.62
70826;SHT31;58446;41.490;22.098;2024-02-15T15:32:48;13.16;40.95
70826;SHT31;58446;41.490;22.098;2024-02-15T15:35:15;13.08;41.34
70826;SHT31;58446;41.490;22.098;2024-02-15T15:37:46;13.04;41.45
70826;SHT31;58446;41.490;22.098;2024-02-15T15:40:12;12.90;41.67
70826;SHT31;58446;41.490;22.098;2024-02-15T15:42:41;12.92;41.82
70826;SHT31;58446;41.490;22.098;2024-02-15T15:45:07;12.80;42.52
70826;SHT31;58446;41.490;22.098;2024-02-15T15:47:36;12.76;42.59
70826;SHT31;58446;41.490;22.098;2024-02-15T15:50:05;12.70;42.96